createdAt,value
2023-04-15T00:03:24.191Z,64.75
2023-04-15T00:08:17.455Z,64.78
2023-04-15T00:13:14.951Z,64.78
2023-04-15T00:18:09.286Z,64.99
2023-04-15T00:23:04.230Z,65.32
2023-04-15T00:27:57.130Z,66.07
2023-04-15T00:32:50.002Z,66.57
2023-04-15T00:37:46.038Z,66.42
2023-04-15T00:42:39.473Z,66.49
2023-04-15T00:47:33.149Z,66.71
2023-04-15T00:52:26.196Z,66.91
2023-04-15T00:57:19.263Z,67.11
2023-04-15T01:02:12.123Z,67.40
2023-04-15T01:07:04.937Z,67.79
2023-04-15T01:11:57.889Z,67.83
2023-04-15T01:16:50.985Z,67.89
2023-04-15T01:21:43.756Z,67.84
2023-04-15T01:26:37.320Z,68.04
2023-04-15T01:31:32.862Z,68.46
2023-04-15T01:36:25.578Z,68.78
2023-04-15T01:41:23.898Z,69.21
2023-04-15T01:46:17.832Z,69.34
2023-04-15T01:51:10.581Z,69.69
2023-04-15T01:56:03.503Z,69.81
2023-04-15T02:00:56.755Z,70.09
2023-04-15T02:05:51.234Z,70.16
2023-04-15T02:10:44.026Z,70.23
2023-04-15T02:15:36.776Z,70.60
2023-04-15T02:20:30.820Z,70.81
2023-04-15T02:25:24.239Z,70.83
2023-04-15T02:30:17.201Z,70.91
2023-04-15T02:35:10.121Z,71.21
2023-04-15T02:40:02.832Z,71.46
2023-04-15T02:44:55.718Z,71.74
2023-04-15T02:49:49.397Z,71.81
2023-04-15T02:54:42.072Z,72.06
2023-04-15T02:59:34.748Z,72.24
2023-04-15T03:04:30.264Z,72.22
2023-04-15T03:09:23.236Z,72.39
2023-04-15T03:14:16.892Z,72.45
2023-04-15T03:19:11.417Z,72.65
2023-04-15T03:24:05.053Z,72.74
2023-04-15T03:28:59.400Z,72.95
2023-04-15T03:33:52.704Z,72.88
2023-04-15T03:38:45.869Z,72.82
2023-04-15T03:43:38.575Z,73.06
2023-04-15T03:48:31.286Z,73.21
2023-04-15T03:53:24.228Z,73.49
2023-04-15T03:58:16.850Z,73.54
2023-04-15T04:03:09.734Z,73.95
2023-04-15T04:08:02.687Z,74.18
2023-04-15T04:12:55.433Z,74.47
2023-04-15T04:17:48.273Z,74.65
2023-04-15T04:22:41.837Z,74.79
2023-04-15T04:27:34.541Z,75.20
2023-04-15T04:32:27.462Z,75.11
2023-04-15T04:37:20.239Z,75.47
2023-04-15T04:42:12.956Z,75.60
2023-04-15T04:47:06.725Z,75.69
2023-04-15T04:52:00.041Z,75.93
2023-04-15T04:56:52.813Z,76.01
2023-04-15T05:01:45.758Z,76.30
2023-04-15T05:06:39.596Z,76.30
2023-04-15T05:11:32.306Z,76.29
2023-04-15T05:16:25.998Z,76.48
2023-04-15T05:21:18.732Z,76.76
2023-04-15T05:26:11.666Z,76.86
2023-04-15T05:31:04.593Z,76.84
2023-04-15T05:35:57.305Z,76.89
2023-04-15T05:40:50.058Z,77.30
2023-04-15T05:45:42.797Z,77.28
2023-04-15T05:50:35.974Z,77.42
2023-04-15T05:55:28.657Z,77.53
2023-04-15T06:00:21.413Z,77.61
2023-04-15T06:05:14.650Z,77.74
2023-04-15T06:10:08.066Z,77.67
2023-04-15T06:15:01.015Z,77.97
2023-04-15T06:19:55.942Z,77.92
2023-04-15T06:24:49.178Z,77.93
2023-04-15T06:29:42.211Z,77.99
2023-04-15T06:34:34.955Z,78.15
2023-04-15T06:39:27.928Z,78.28
2023-04-15T06:44:20.779Z,78.28
2023-04-15T06:49:13.477Z,78.35
2023-04-15T06:54:06.578Z,78.46
2023-04-15T06:58:59.496Z,78.54
2023-04-15T07:03:52.613Z,78.54
2023-04-15T07:08:45.295Z,78.75
2023-04-15T07:13:38.506Z,78.68
2023-04-15T07:18:31.198Z,78.59
2023-04-15T07:23:23.948Z,78.58
2023-04-15T07:28:16.838Z,78.58
2023-04-15T07:33:10.362Z,78.80
2023-04-15T07:38:03.487Z,78.82
2023-04-15T07:42:58.428Z,78.86
2023-04-15T07:47:51.469Z,78.92
2023-04-15T07:52:44.859Z,78.84
2023-04-15T07:57:38.130Z,78.74
2023-04-15T08:02:31.895Z,78.96
2023-04-15T08:07:25.412Z,78.93
2023-04-15T08:12:18.736Z,78.88
2023-04-15T08:17:11.658Z,78.92
2023-04-15T08:22:04.463Z,78.62
2023-04-15T08:26:57.888Z,78.47
2023-04-15T08:31:50.734Z,78.36
2023-04-15T08:36:44.016Z,78.47
2023-04-15T08:41:47.813Z,78.57
2023-04-15T08:46:40.818Z,78.48
2023-04-15T08:51:34.260Z,78.36
2023-04-15T08:56:27.948Z,78.43
2023-04-15T09:01:20.793Z,78.53
2023-04-15T09:06:13.696Z,78.60
2023-04-15T09:11:06.652Z,78.56
2023-04-15T09:15:59.527Z,78.64
2023-04-15T09:20:54.608Z,78.69
2023-04-15T09:25:47.429Z,78.30
2023-04-15T09:30:40.171Z,78.44
2023-04-15T09:35:32.908Z,78.59
2023-04-15T09:40:36.038Z,78.39
2023-04-15T09:45:29.810Z,78.06
2023-04-15T09:50:22.690Z,78.00
2023-04-15T09:55:16.169Z,78.15
2023-04-15T10:00:11.511Z,77.71
2023-04-15T10:05:04.687Z,77.44
2023-04-15T10:09:58.058Z,77.65
2023-04-15T10:14:57.883Z,77.48
2023-04-15T10:19:50.851Z,77.52
2023-04-15T10:24:45.466Z,77.54
2023-04-15T10:29:38.891Z,77.57
2023-04-15T10:34:32.431Z,77.56
2023-04-15T10:39:34.511Z,77.71
2023-04-15T10:44:27.466Z,78.00
2023-04-15T10:49:26.280Z,78.10
2023-04-15T10:54:32.315Z,78.09
2023-04-15T10:59:25.020Z,77.81
2023-04-15T11:04:37.892Z,77.60
2023-04-15T11:09:34.725Z,77.79
2023-04-15T11:14:27.623Z,77.95
2023-04-15T11:19:20.777Z,77.98
2023-04-15T11:24:13.532Z,78.10
2023-04-15T11:29:06.373Z,78.66
2023-04-15T11:34:00.256Z,78.62
2023-04-15T11:38:52.999Z,78.04
2023-04-15T11:43:45.784Z,77.37
2023-04-15T11:48:38.517Z,77.11
2023-04-15T11:53:43.552Z,76.77
2023-04-15T11:58:37.486Z,77.24
2023-04-15T12:03:38.298Z,77.01
2023-04-15T12:08:49.557Z,76.22
2023-04-15T12:13:45.915Z,76.18
2023-04-15T12:18:41.465Z,75.56
2023-04-15T12:23:37.990Z,75.54
2023-04-15T12:28:32.185Z,74.95
2023-04-15T12:33:24.885Z,74.91
2023-04-15T12:38:17.635Z,74.60
2023-04-15T12:43:10.325Z,74.55
2023-04-15T12:48:03.118Z,73.40
2023-04-15T12:52:55.802Z,72.81
2023-04-15T12:57:48.878Z,72.88
2023-04-15T13:02:41.657Z,72.89
2023-04-15T13:07:34.587Z,72.42
2023-04-15T13:12:27.941Z,71.88
2023-04-15T13:17:22.232Z,71.34
2023-04-15T13:22:15.427Z,71.31
2023-04-15T13:27:08.492Z,70.77
2023-04-15T13:32:01.663Z,70.07
2023-04-15T13:36:54.544Z,70.40
2023-04-15T13:41:48.632Z,70.47
2023-04-15T13:46:42.116Z,70.89
2023-04-15T13:51:36.475Z,71.07
2023-04-15T13:56:30.024Z,71.29
2023-04-15T14:01:29.067Z,71.12
2023-04-15T14:06:22.248Z,70.76
2023-04-15T14:11:14.995Z,70.54
2023-04-15T14:16:08.147Z,70.88
2023-04-15T14:21:01.136Z,70.61
2023-04-15T14:25:54.604Z,69.99
2023-04-15T14:30:47.596Z,69.64
2023-04-15T14:35:40.407Z,69.80
2023-04-15T14:40:34.565Z,69.67
2023-04-15T14:45:28.315Z,69.65
2023-04-15T14:50:21.277Z,69.13
2023-04-15T14:55:14.365Z,68.76
2023-04-15T15:00:08.533Z,67.90
2023-04-15T15:05:02.659Z,67.89
2023-04-15T15:09:55.816Z,67.95
2023-04-15T15:14:48.517Z,68.27
2023-04-15T15:19:41.305Z,68.71
2023-04-15T15:24:33.998Z,69.25
2023-04-15T15:29:26.764Z,69.25
2023-04-15T15:34:19.502Z,68.93
2023-04-15T15:39:12.430Z,68.56
2023-04-15T15:44:05.146Z,68.33
2023-04-15T15:48:58.447Z,68.06
2023-04-15T15:53:51.308Z,67.72
2023-04-15T15:58:45.274Z,67.85
2023-04-15T16:03:38.198Z,67.80
2023-04-15T16:08:31.002Z,67.86
2023-04-15T16:13:23.753Z,67.64
2023-04-15T16:18:16.494Z,67.93
2023-04-15T16:23:18.364Z,68.30
2023-04-15T16:28:25.109Z,68.61
2023-04-15T16:33:19.308Z,69.12
2023-04-15T16:38:12.003Z,69.56
2023-04-15T16:43:07.349Z,69.88
2023-04-15T16:48:00.625Z,70.16
2023-04-15T16:52:53.522Z,70.43
2023-04-15T16:58:03.283Z,70.64
2023-04-15T17:02:56.864Z,70.92
2023-04-15T17:07:49.794Z,71.06
2023-04-15T17:12:42.569Z,71.06
2023-04-15T17:17:35.351Z,71.40
2023-04-15T17:22:29.116Z,71.33
2023-04-15T17:27:22.104Z,71.57
2023-04-15T17:32:14.804Z,71.67
2023-04-15T17:37:07.563Z,71.94
2023-04-15T17:42:00.283Z,72.14
2023-04-15T17:46:53.005Z,72.33
2023-04-15T17:51:48.278Z,72.48
2023-04-15T17:56:41.014Z,72.48
2023-04-15T18:01:33.773Z,72.77
2023-04-15T18:06:27.255Z,72.51
2023-04-15T18:11:20.048Z,72.72
2023-04-15T18:16:12.866Z,72.93
2023-04-15T18:21:05.816Z,72.80
2023-04-15T18:25:59.639Z,73.07
2023-04-15T18:30:52.408Z,73.08
2023-04-15T18:35:45.196Z,72.99
2023-04-15T18:40:37.942Z,72.92
2023-04-15T18:45:31.312Z,73.25
2023-04-15T18:50:25.023Z,73.06
2023-04-15T18:55:19.198Z,73.22
2023-04-15T19:00:13.352Z,73.26
2023-04-15T19:05:07.045Z,73.11
2023-04-15T19:09:59.763Z,73.17
2023-04-15T19:14:52.498Z,73.27
2023-04-15T19:19:45.255Z,73.03
2023-04-15T19:24:38.336Z,73.20
2023-04-15T19:29:31.360Z,73.30
2023-04-15T19:34:25.276Z,73.26
2023-04-15T19:39:19.767Z,73.17
2023-04-15T19:44:13.440Z,73.37
2023-04-15T19:49:06.682Z,73.70
2023-04-15T19:54:00.001Z,73.71
2023-04-15T19:58:53.171Z,73.66
2023-04-15T20:03:46.517Z,73.67
2023-04-15T20:08:39.380Z,73.91
2023-04-15T20:13:33.107Z,73.72
2023-04-15T20:18:25.795Z,74.02
2023-04-15T20:23:18.495Z,74.00
2023-04-15T20:28:11.618Z,73.87
2023-04-15T20:33:05.633Z,73.97
2023-04-15T20:37:58.286Z,74.09
2023-04-15T20:42:50.940Z,74.17
2023-04-15T20:47:43.807Z,74.18
2023-04-15T20:52:36.699Z,74.62
2023-04-15T20:57:30.428Z,74.47
2023-04-15T21:02:26.763Z,74.47
2023-04-15T21:07:19.639Z,74.46
2023-04-15T21:12:12.389Z,74.56
2023-04-15T21:17:10.056Z,74.73
2023-04-15T21:22:04.315Z,74.82
2023-04-15T21:26:57.283Z,74.82
2023-04-15T21:31:50.098Z,74.87
2023-04-15T21:36:42.820Z,74.96
2023-04-15T21:41:36.769Z,75.08
2023-04-15T21:46:33.297Z,75.30
2023-04-15T21:51:28.272Z,75.37
2023-04-15T21:56:23.236Z,75.31
2023-04-15T22:01:17.020Z,75.42
2023-04-15T22:06:09.786Z,75.46
2023-04-15T22:11:02.463Z,75.49
2023-04-15T22:15:55.186Z,75.47
2023-04-15T22:20:47.854Z,75.73
2023-04-15T22:25:40.599Z,75.76
2023-04-15T22:30:33.515Z,75.93
2023-04-15T22:35:26.229Z,75.92
2023-04-15T22:40:18.960Z,75.93
2023-04-15T22:45:11.700Z,76.29
2023-04-15T22:50:04.575Z,76.23
2023-04-15T22:54:57.266Z,76.44
2023-04-15T22:59:50.018Z,76.56
2023-04-15T23:04:42.850Z,76.84
2023-04-15T23:09:35.672Z,76.90
2023-04-15T23:14:29.109Z,76.94
2023-04-15T23:19:21.891Z,77.04
2023-04-15T23:24:14.579Z,77.14
2023-04-15T23:29:08.652Z,77.20
2023-04-15T23:34:01.488Z,77.34
2023-04-15T23:38:54.330Z,77.26
2023-04-15T23:43:47.285Z,77.38
2023-04-15T23:48:40.752Z,77.39
2023-04-15T23:53:33.456Z,77.47
2023-04-15T23:58:26.198Z,77.75
